Time;durP1;ratioP1;P1;durP2;ratioP2;P2;SDS_P1;SDS_P2;PMS_P1;PMS_P2;Temp;Humidity;BMP_temperature;BMP_pressure;BME280_temperature;BME280_humidity;BME280_pressure;Samples;Min_cycle;Max_cycle;Signal;HPM_P1;HPM_P2
2023/01/07 00:01:41;;;;;;;26.25;15.55;;;;;;;;;;5056444;28;20044;-68
2023/01/07 00:04:10;;;;;;;27.73;15.57;;;;;;;;;;5058348;28;20402;-68
2023/01/07 00:06:37;;;;;;;27.83;15.10;;;;;;;;;;5051841;28;20446;-68
2023/01/07 00:09:04;;;;;;;25.98;16.33;;;;;;;;;;5053237;28;20041;-67
2023/01/07 00:11:32;;;;;;;25.55;15.88;;;;;;;;;;5055916;28;20032;-67
2023/01/07 00:13:59;;;;;;;24.83;14.60;;;;;;;;;;5059253;28;20491;-67
2023/01/07 00:16:27;;;;;;;29.20;16.63;;;;;;;;;;5057757;28;20071;-68
2023/01/07 00:18:54;;;;;;;28.05;16.33;;;;;;;;;;5058126;28;20080;-67
2023/01/07 00:21:21;;;;;;;27.20;16.50;;;;;;;;;;5056227;28;20051;-67
2023/01/07 00:23:47;;;;;;;30.17;16.42;;;;;;;;;;5051095;28;20120;-68
2023/01/07 00:26:18;;;;;;;27.40;16.30;;;;;;;;;;5064043;28;20048;-68
2023/01/07 00:28:45;;;;;;;27.48;15.27;;;;;;;;;;5067088;28;20102;-68
2023/01/07 00:31:15;;;;;;;32.15;17.52;;;;;;;;;;5068721;28;20036;-68
2023/01/07 00:34:05;;;;;;;26.40;14.75;;;;;;;;;;5051841;28;20084;-68
2023/01/07 00:37:48;;;;;;;29.55;17.60;;;;;;;;;;5065846;28;20041;-68
2023/01/07 00:39:38;;;;;;;30.83;17.27;;;;;;;;;;5054995;28;20040;-68
2023/01/07 00:44:48;;;;;;;29.92;17.45;;;;;;;;;;5057323;28;20411;-68
2023/01/07 00:47:14;;;;;;;29.15;16.95;;;;;;;;;;5069030;28;20044;-67
2023/01/07 00:49:40;;;;;;;26.35;15.88;;;;;;;;;;5053662;28;20103;-67
2023/01/07 00:52:06;;;;;;;28.20;16.52;;;;;;;;;;5064630;28;20029;-68
2023/01/07 00:54:32;;;;;;;31.67;18.33;;;;;;;;;;5069579;28;20113;-68
2023/01/07 00:56:58;;;;;;;30.42;17.48;;;;;;;;;;5065205;28;20037;-69
2023/01/07 00:59:24;;;;;;;33.78;19.23;;;;;;;;;;5056914;28;20063;-68
2023/01/07 01:01:50;;;;;;;32.58;18.23;;;;;;;;;;5066137;28;20040;-69
2023/01/07 01:04:16;;;;;;;36.30;19.52;;;;;;;;;;5056949;28;20052;-69
2023/01/07 01:06:42;;;;;;;32.08;17.95;;;;;;;;;;5046151;28;20294;-68
2023/01/07 01:09:08;;;;;;;34.05;19.85;;;;;;;;;;5057382;28;20043;-69
2023/01/07 01:11:34;;;;;;;32.67;18.55;;;;;;;;;;5062780;28;20041;-70
2023/01/07 01:14:00;;;;;;;34.10;19.70;;;;;;;;;;5055963;28;20048;-69
2023/01/07 01:16:26;;;;;;;37.63;20.30;;;;;;;;;;5069260;28;20033;-68
2023/01/07 01:18:52;;;;;;;34.30;18.48;;;;;;;;;;5059685;28;20036;-68
2023/01/07 01:21:18;;;;;;;32.80;18.17;;;;;;;;;;5067387;28;20107;-68
2023/01/07 01:23:44;;;;;;;36.15;19.60;;;;;;;;;;5055057;28;20032;-67
2023/01/07 01:26:15;;;;;;;38.30;21.00;;;;;;;;;;5057162;28;20044;-68
2023/01/07 01:28:42;;;;;;;30.63;18.20;;;;;;;;;;5053855;28;20504;-68
2023/01/07 01:31:08;;;;;;;32.13;18.73;;;;;;;;;;5067177;28;20101;-68
2023/01/07 01:33:34;;;;;;;31.15;16.90;;;;;;;;;;5056709;28;20044;-68
2023/01/07 01:36:03;;;;;;;35.50;18.77;;;;;;;;;;5062248;28;20041;-68
2023/01/07 01:38:29;;;;;;;33.35;18.88;;;;;;;;;;5062200;28;20143;-68
2023/01/07 01:40:55;;;;;;;30.45;18.85;;;;;;;;;;5065458;28;20045;-68
2023/01/07 01:43:32;;;;;;;27.80;16.25;;;;;;;;;;5060515;28;20037;-68
2023/01/07 01:46:02;;;;;;;36.08;19.08;;;;;;;;;;5061546;28;20045;-68
2023/01/07 01:48:28;;;;;;;31.25;18.88;;;;;;;;;;5060555;28;20135;-68
2023/01/07 01:50:54;;;;;;;36.75;19.23;;;;;;;;;;5061061;28;20083;-68
2023/01/07 01:53:25;;;;;;;32.88;18.48;;;;;;;;;;5059274;28;20463;-68
2023/01/07 01:55:51;;;;;;;;;;;;;;;;;;5068460;28;20036;-68
2023/01/07 01:58:19;;;;;;;26.73;17.27;;;;;;;;;;5066572;28;20282;-68
2023/01/07 02:00:45;;;;;;;30.17;18.52;;;;;;;;;;5059284;28;20411;-68
2023/01/07 02:03:14;;;;;;;31.42;18.02;;;;;;;;;;5072610;28;20039;-68
2023/01/07 02:05:41;;;;;;;31.80;19.00;;;;;;;;;;5093608;22;20045;-61
2023/01/07 02:08:07;;;;;;;28.15;15.77;;;;;;;;;;5085184;28;20096;-62
2023/01/07 02:10:34;;;;;;;42.40;20.40;;;;;;;;;;5080139;28;20047;-62
2023/01/07 02:13:13;;;;;;;28.27;15.30;;;;;;;;;;5087360;28;20029;-62
2023/01/07 02:15:59;;;;;;;36.58;19.08;;;;;;;;;;5083197;28;20055;-62
2023/01/07 02:18:47;;;;;;;33.63;18.35;;;;;;;;;;5087589;28;20085;-62
2023/01/07 02:21:19;;;;;;;32.75;19.10;;;;;;;;;;5085884;28;20133;-62
2023/01/07 02:23:45;;;;;;;33.72;18.73;;;;;;;;;;5094060;28;20064;-62
2023/01/07 02:26:30;;;;;;;30.65;18.45;;;;;;;;;;5094427;28;20079;-62
2023/01/07 02:29:02;;;;;;;30.17;16.40;;;;;;;;;;5087225;28;20134;-62
2023/01/07 02:31:36;;;;;;;32.47;16.95;;;;;;;;;;5082797;28;20086;-62
2023/01/07 02:34:31;;;;;;;35.65;18.73;;;;;;;;;;5091818;28;20093;-62
2023/01/07 02:37:06;;;;;;;30.40;16.00;;;;;;;;;;5081101;28;20106;-62
2023/01/07 02:39:50;;;;;;;33.97;18.98;;;;;;;;;;5084879;28;20164;-62
2023/01/07 02:42:43;;;;;;;30.30;17.13;;;;;;;;;;5084776;28;20131;-62
2023/01/07 02:45:35;;;;;;;31.50;17.58;;;;;;;;;;5069473;28;20056;-62
2023/01/07 02:48:06;;;;;;;31.00;17.60;;;;;;;;;;5073423;28;20044;-62
2023/01/07 02:50:32;;;;;;;35.53;18.52;;;;;;;;;;5084704;28;20143;-62
2023/01/07 02:52:58;;;;;;;33.05;17.70;;;;;;;;;;5091194;28;20051;-62
2023/01/07 02:55:33;;;;;;;31.38;18.95;;;;;;;;;;5088641;28;20044;-63
2023/01/07 02:58:11;;;;;;;30.42;17.25;;;;;;;;;;5087020;28;20044;-62
2023/01/07 03:01:00;;;;;;;33.00;17.13;;;;;;;;;;5071776;28;20501;-63
2023/01/07 03:03:35;;;;;;;31.23;17.17;;;;;;;;;;5079895;28;20043;-62
2023/01/07 03:06:16;;;;;;;33.28;18.38;;;;;;;;;;5086713;28;20039;-62
2023/01/07 03:08:42;;;;;;;;;;;;;;;;;;5075725;28;20041;-62
2023/01/07 03:11:09;;;;;;;28.00;15.70;;;;;;;;;;5074752;28;19939;-62
2023/01/07 03:13:38;;;;;;;25.90;16.15;;;;;;;;;;5088623;28;20036;-62
2023/01/07 03:16:12;;;;;;;26.40;16.75;;;;;;;;;;5082581;28;20406;-62
2023/01/07 03:18:45;;;;;;;29.30;16.80;;;;;;;;;;5073050;28;20036;-62
2023/01/07 03:21:13;;;;;;;25.08;15.70;;;;;;;;;;5076803;28;20144;-62
2023/01/07 03:23:43;;;;;;;33.95;17.90;;;;;;;;;;5074212;28;20044;-62
2023/01/07 03:26:09;;;;;;;26.10;15.77;;;;;;;;;;5082537;28;20122;-62
2023/01/07 03:28:39;;;;;;;25.02;16.02;;;;;;;;;;5081884;28;20059;-62
2023/01/07 03:31:07;;;;;;;28.90;16.48;;;;;;;;;;5080969;28;20132;-62
2023/01/07 03:33:43;;;;;;;25.25;16.30;;;;;;;;;;5083996;28;20060;-63
2023/01/07 03:36:10;;;;;;;26.58;16.55;;;;;;;;;;5081453;28;20156;-62
2023/01/07 03:38:37;;;;;;;28.83;16.90;;;;;;;;;;5075153;28;20094;-62
2023/01/07 03:41:03;;;;;;;27.25;16.80;;;;;;;;;;5083166;28;20409;-62
2023/01/07 03:43:29;;;;;;;25.95;15.95;;;;;;;;;;5089961;28;20359;-62
2023/01/07 03:45:57;;;;;;;25.23;15.20;;;;;;;;;;5086033;28;20039;-62
2023/01/07 03:48:23;;;;;;;25.10;15.27;;;;;;;;;;5087211;28;20402;-62
2023/01/07 03:50:49;;;;;;;29.35;15.65;;;;;;;;;;5082567;28;20032;-62
2023/01/07 03:53:14;;;;;;;23.25;14.07;;;;;;;;;;5077561;28;20040;-63
2023/01/07 03:55:40;;;;;;;21.52;12.55;;;;;;;;;;5084492;28;20113;-63
2023/01/07 03:58:07;;;;;;;24.63;13.52;;;;;;;;;;5086126;28;20036;-63
2023/01/07 04:00:33;;;;;;;24.20;15.13;;;;;;;;;;5083699;28;20040;-63
2023/01/07 04:02:59;;;;;;;21.95;14.52;;;;;;;;;;5076116;28;20089;-63
2023/01/07 04:05:24;;;;;;;21.65;13.38;;;;;;;;;;5073659;28;20080;-64
2023/01/07 04:07:50;;;;;;;22.65;14.30;;;;;;;;;;5092421;28;20064;-63
2023/01/07 04:10:16;;;;;;;22.92;13.70;;;;;;;;;;5091523;28;20040;-63
2023/01/07 04:12:42;;;;;;;23.90;14.07;;;;;;;;;;5080926;28;20078;-63
2023/01/07 04:15:09;;;;;;;20.70;13.07;;;;;;;;;;5077587;28;20040;-63
2023/01/07 04:17:35;;;;;;;23.27;13.65;;;;;;;;;;5091475;28;20047;-63
2023/01/07 04:20:01;;;;;;;21.23;13.82;;;;;;;;;;5082891;28;20044;-63
2023/01/07 04:22:27;;;;;;;21.52;12.93;;;;;;;;;;5081765;28;20040;-63
2023/01/07 04:24:53;;;;;;;20.52;13.20;;;;;;;;;;5077949;28;20097;-63
2023/01/07 04:27:19;;;;;;;21.42;13.40;;;;;;;;;;5091455;28;20063;-63
2023/01/07 04:29:45;;;;;;;21.58;13.25;;;;;;;;;;5080483;28;20135;-63
2023/01/07 04:32:11;;;;;;;19.63;12.98;;;;;;;;;;5082909;28;20063;-63
2023/01/07 04:34:37;;;;;;;17.92;12.52;;;;;;;;;;5083140;28;20139;-63
2023/01/07 04:37:03;;;;;;;17.58;11.02;;;;;;;;;;5073455;28;20119;-63
2023/01/07 04:39:29;;;;;;;20.90;12.00;;;;;;;;;;5072736;28;20040;-63
2023/01/07 04:41:55;;;;;;;18.98;12.15;;;;;;;;;;5084011;28;20520;-63
2023/01/07 04:44:21;;;;;;;17.50;11.43;;;;;;;;;;5083465;28;20044;-63
2023/01/07 04:46:47;;;;;;;20.90;11.90;;;;;;;;;;5090995;28;20043;-63
2023/01/07 04:49:13;;;;;;;16.80;11.63;;;;;;;;;;5083170;28;20036;-63
2023/01/07 04:51:39;;;;;;;21.83;11.82;;;;;;;;;;5080383;28;20475;-63
2023/01/07 04:54:05;;;;;;;16.25;11.02;;;;;;;;;;5088045;28;20036;-63
2023/01/07 04:56:32;;;;;;;18.88;11.13;;;;;;;;;;5081930;28;20040;-63
2023/01/07 04:58:58;;;;;;;17.20;10.23;;;;;;;;;;5091478;28;20638;-63
2023/01/07 05:01:24;;;;;;;16.33;11.30;;;;;;;;;;5083492;28;20500;-63
2023/01/07 05:03:50;;;;;;;16.00;10.18;;;;;;;;;;5081966;28;20405;-63
2023/01/07 05:06:16;;;;;;;15.27;10.27;;;;;;;;;;5081762;28;20343;-63
2023/01/07 05:08:42;;;;;;;16.55;11.05;;;;;;;;;;5081586;28;20401;-63
2023/01/07 05:11:08;;;;;;;17.33;10.93;;;;;;;;;;5084814;28;20043;-63
2023/01/07 05:13:34;;;;;;;17.23;11.02;;;;;;;;;;5074986;28;20037;-63
2023/01/07 05:16:00;;;;;;;15.27;9.55;;;;;;;;;;5090005;28;20040;-63
2023/01/07 05:18:26;;;;;;;18.15;10.32;;;;;;;;;;5090247;28;20040;-63
2023/01/07 05:20:52;;;;;;;13.45;7.55;;;;;;;;;;5088541;28;20082;-63
2023/01/07 05:23:18;;;;;;;14.07;9.48;;;;;;;;;;5088229;28;20124;-63
2023/01/07 05:25:44;;;;;;;14.73;9.48;;;;;;;;;;5073850;28;20048;-63
2023/01/07 05:28:11;;;;;;;12.73;9.70;;;;;;;;;;5083223;28;20558;-63
2023/01/07 05:30:38;;;;;;;18.55;10.65;;;;;;;;;;5080831;28;20045;-63
2023/01/07 05:33:06;;;;;;;17.08;9.40;;;;;;;;;;5074036;28;20032;-63
2023/01/07 05:35:32;;;;;;;15.40;9.82;;;;;;;;;;5070808;28;20425;-63
2023/01/07 05:37:58;;;;;;;13.07;9.18;;;;;;;;;;5088081;28;20479;-63
2023/01/07 05:40:24;;;;;;;15.35;9.05;;;;;;;;;;5083810;28;20056;-63
2023/01/07 05:42:50;;;;;;;15.00;9.23;;;;;;;;;;5077938;28;20119;-63
2023/01/07 05:45:16;;;;;;;13.82;9.27;;;;;;;;;;5084768;28;20119;-63
2023/01/07 05:47:42;;;;;;;14.88;9.38;;;;;;;;;;5086304;28;20043;-63
2023/01/07 05:50:08;;;;;;;16.15;9.95;;;;;;;;;;5086751;28;20043;-63
2023/01/07 05:52:34;;;;;;;14.75;9.15;;;;;;;;;;5079789;28;20040;-62
2023/01/07 05:55:00;;;;;;;14.18;8.70;;;;;;;;;;5088259;28;20123;-63
2023/01/07 05:57:26;;;;;;;12.77;7.90;;;;;;;;;;5088163;28;20131;-63
2023/01/07 05:59:52;;;;;;;13.32;8.68;;;;;;;;;;5078242;28;20036;-63
2023/01/07 06:02:18;;;;;;;15.23;8.63;;;;;;;;;;5084652;28;20043;-62
2023/01/07 06:04:44;;;;;;;11.57;7.90;;;;;;;;;;5088234;28;20079;-63
2023/01/07 06:07:10;;;;;;;12.82;8.10;;;;;;;;;;5089649;28;20097;-63
2023/01/07 06:09:36;;;;;;;12.98;7.45;;;;;;;;;;5089121;28;20064;-63
2023/01/07 06:12:02;;;;;;;14.70;8.30;;;;;;;;;;5075709;28;20032;-62
2023/01/07 06:14:28;;;;;;;13.07;8.18;;;;;;;;;;5079602;28;20059;-63
2023/01/07 06:16:54;;;;;;;13.15;8.68;;;;;;;;;;5080704;28;20040;-63
2023/01/07 06:19:21;;;;;;;11.57;8.15;;;;;;;;;;5083082;28;20040;-63
2023/01/07 06:21:48;;;;;;;12.02;8.00;;;;;;;;;;5087001;28;20525;-63
2023/01/07 06:24:14;;;;;;;14.27;7.85;;;;;;;;;;5094211;28;20044;-63
2023/01/07 06:26:40;;;;;;;12.80;7.57;;;;;;;;;;5091740;28;20031;-63
2023/01/07 06:29:06;;;;;;;13.70;8.20;;;;;;;;;;5092853;28;20032;-63
2023/01/07 06:31:32;;;;;;;12.85;7.32;;;;;;;;;;5092906;28;20089;-62
2023/01/07 06:33:58;;;;;;;12.35;7.97;;;;;;;;;;5074916;28;20056;-62
2023/01/07 06:36:24;;;;;;;11.38;7.97;;;;;;;;;;5092111;28;20039;-63
2023/01/07 06:38:50;;;;;;;9.85;7.18;;;;;;;;;;5086175;28;20036;-63
2023/01/07 06:41:16;;;;;;;12.73;7.32;;;;;;;;;;5093157;28;20036;-62
2023/01/07 06:43:42;;;;;;;9.55;7.05;;;;;;;;;;5089753;28;20064;-63
2023/01/07 06:46:08;;;;;;;9.18;6.82;;;;;;;;;;5082566;28;20032;-62
2023/01/07 06:48:34;;;;;;;10.98;7.45;;;;;;;;;;5092193;28;20547;-63
2023/01/07 06:51:00;;;;;;;11.70;7.13;;;;;;;;;;5093396;28;20028;-63
2023/01/07 06:53:26;;;;;;;11.65;7.25;;;;;;;;;;5086752;28;20478;-62
2023/01/07 06:55:52;;;;;;;10.18;7.20;;;;;;;;;;5074018;28;20048;-63
2023/01/07 06:58:18;;;;;;;9.88;7.38;;;;;;;;;;5088724;28;20043;-63
2023/01/07 07:00:44;;;;;;;9.82;6.70;;;;;;;;;;5092557;28;20032;-63
2023/01/07 07:03:10;;;;;;;9.38;6.47;;;;;;;;;;5086153;28;20044;-63
2023/01/07 07:05:36;;;;;;;7.90;5.85;;;;;;;;;;5083280;28;20044;-63
2023/01/07 07:08:03;;;;;;;10.93;6.57;;;;;;;;;;5088562;28;20575;-63
2023/01/07 07:10:29;;;;;;;7.65;6.15;;;;;;;;;;5091586;28;20047;-63
2023/01/07 07:12:55;;;;;;;8.85;6.07;;;;;;;;;;5084895;28;20089;-63
2023/01/07 07:15:21;;;;;;;9.55;6.22;;;;;;;;;;5086583;28;20078;-63
2023/01/07 07:17:47;;;;;;;10.13;5.88;;;;;;;;;;5084699;28;20028;-63
2023/01/07 07:20:13;;;;;;;9.32;6.15;;;;;;;;;;5080056;28;20406;-63
2023/01/07 07:22:44;;;;;;;9.63;6.88;;;;;;;;;;5082408;28;20040;-63
2023/01/07 07:25:10;;;;;;;7.77;5.83;;;;;;;;;;5085288;28;20629;-63
2023/01/07 07:27:36;;;;;;;10.52;6.30;;;;;;;;;;5088317;28;20165;-63
2023/01/07 07:30:02;;;;;;;9.52;6.57;;;;;;;;;;5087603;28;20036;-63
2023/01/07 07:32:28;;;;;;;9.48;6.40;;;;;;;;;;5088498;28;20032;-63
2023/01/07 07:34:54;;;;;;;10.65;6.55;;;;;;;;;;5084489;28;20050;-63
2023/01/07 07:37:20;;;;;;;9.70;6.30;;;;;;;;;;5073208;28;20098;-63
2023/01/07 07:39:46;;;;;;;9.25;6.30;;;;;;;;;;5087569;28;20044;-63
2023/01/07 07:42:12;;;;;;;10.45;5.93;;;;;;;;;;5078644;28;20510;-63
2023/01/07 07:44:38;;;;;;;8.52;6.30;;;;;;;;;;5090283;28;20040;-63
2023/01/07 07:47:04;;;;;;;8.50;5.90;;;;;;;;;;5089496;28;20039;-63
2023/01/07 07:49:30;;;;;;;10.73;6.90;;;;;;;;;;5078988;28;20032;-63
2023/01/07 07:51:56;;;;;;;8.38;6.00;;;;;;;;;;5091085;28;20115;-63
2023/01/07 07:54:22;;;;;;;7.75;6.03;;;;;;;;;;5080724;28;20048;-63
2023/01/07 07:56:48;;;;;;;9.02;6.65;;;;;;;;;;5087071;28;20032;-63
2023/01/07 07:59:14;;;;;;;7.32;5.93;;;;;;;;;;5084628;28;20040;-63
2023/01/07 08:01:40;;;;;;;9.13;6.15;;;;;;;;;;5079525;28;20032;-63
2023/01/07 08:04:06;;;;;;;8.48;6.03;;;;;;;;;;5084338;28;20040;-63
2023/01/07 08:06:33;;;;;;;7.53;5.70;;;;;;;;;;5082205;22;20041;-70
2023/01/07 08:08:59;;;;;;;7.78;5.15;;;;;;;;;;5048713;28;20086;-70
2023/01/07 08:11:25;;;;;;;7.03;5.63;;;;;;;;;;5047665;28;20041;-70
2023/01/07 08:13:51;;;;;;;8.70;5.68;;;;;;;;;;5047825;28;20044;-70
2023/01/07 08:16:17;;;;;;;9.18;5.47;;;;;;;;;;5041808;28;20043;-70
2023/01/07 08:18:43;;;;;;;8.30;4.88;;;;;;;;;;5027160;28;20046;-70
2023/01/07 08:21:09;;;;;;;9.45;5.55;;;;;;;;;;5041975;28;20043;-70
2023/01/07 08:23:35;;;;;;;9.93;5.93;;;;;;;;;;5031345;28;20065;-70
2023/01/07 08:26:01;;;;;;;7.10;5.40;;;;;;;;;;5030355;28;20046;-67
2023/01/07 08:28:28;;;;;;;8.63;5.45;;;;;;;;;;5031516;28;20042;-67
2023/01/07 08:30:54;;;;;;;9.20;5.20;;;;;;;;;;5028734;28;20036;-67
2023/01/07 08:33:20;;;;;;;7.45;5.38;;;;;;;;;;5024052;28;20037;-67
2023/01/07 08:35:46;;;;;;;9.95;5.65;;;;;;;;;;5026545;28;20111;-68
2023/01/07 08:38:12;;;;;;;6.15;4.60;;;;;;;;;;5027659;28;20178;-68
2023/01/07 08:40:38;;;;;;;7.70;5.00;;;;;;;;;;5024610;28;20095;-68
2023/01/07 08:43:06;;;;;;;8.35;5.10;;;;;;;;;;5029171;28;20045;-69
2023/01/07 08:45:32;;;;;;;7.25;4.85;;;;;;;;;;5021221;28;20135;-68
2023/01/07 08:47:58;;;;;;;7.20;4.60;;;;;;;;;;5028090;28;20248;-69
2023/01/07 08:50:28;;;;;;;6.25;4.50;;;;;;;;;;5029833;28;20033;-69
2023/01/07 08:52:54;;;;;;;8.20;4.35;;;;;;;;;;5024343;28;20044;-69
2023/01/07 08:55:20;;;;;;;7.22;4.63;;;;;;;;;;5029628;28;20076;-69
2023/01/07 08:57:46;;;;;;;6.70;4.70;;;;;;;;;;5031917;28;20041;-69
2023/01/07 09:00:13;;;;;;;6.25;4.05;;;;;;;;;;5028211;28;20030;-69
2023/01/07 09:02:39;;;;;;;8.00;4.47;;;;;;;;;;5029886;28;20046;-69
2023/01/07 09:05:05;;;;;;;6.85;3.95;;;;;;;;;;5023875;28;20443;-69
2023/01/07 09:07:32;;;;;;;8.52;4.43;;;;;;;;;;5029673;28;20083;-69
2023/01/07 09:09:59;;;;;;;6.78;3.50;;;;;;;;;;5029177;28;20068;-69
2023/01/07 09:12:25;;;;;;;5.60;3.63;;;;;;;;;;5029207;28;20495;-69
2023/01/07 09:14:52;;;;;;;5.57;3.53;;;;;;;;;;5022487;28;20037;-69
2023/01/07 09:17:18;;;;;;;6.63;3.80;;;;;;;;;;5024191;28;20071;-68
2023/01/07 09:19:44;;;;;;;4.07;3.35;;;;;;;;;;5023299;28;20033;-69
2023/01/07 09:22:10;;;;;;;3.90;3.30;;;;;;;;;;5026792;28;20037;-69
2023/01/07 09:24:36;;;;;;;4.93;3.35;;;;;;;;;;5027975;28;20132;-69
2023/01/07 09:27:02;;;;;;;5.10;3.55;;;;;;;;;;5029645;28;20112;-69
2023/01/07 09:29:28;;;;;;;8.52;3.92;;;;;;;;;;5028926;28;20045;-68
2023/01/07 09:31:54;;;;;;;7.28;4.10;;;;;;;;;;5024342;28;20041;-69
2023/01/07 09:34:20;;;;;;;3.78;3.28;;;;;;;;;;5026918;28;20081;-69
2023/01/07 09:36:46;;;;;;;4.60;3.30;;;;;;;;;;5026354;28;20038;-69
2023/01/07 09:39:12;;;;;;;6.43;3.40;;;;;;;;;;5028938;28;20031;-68
2023/01/07 09:41:44;;;;;;;3.90;2.90;;;;;;;;;;5027906;28;20037;-69
2023/01/07 09:44:17;;;;;;;5.03;3.65;;;;;;;;;;5027409;28;20034;-69
2023/01/07 09:46:44;;;;;;;4.28;2.80;;;;;;;;;;5025163;28;20050;-68
2023/01/07 09:49:17;;;;;;;3.58;2.80;;;;;;;;;;5025161;28;20392;-69
2023/01/07 09:51:44;;;;;;;6.25;2.80;;;;;;;;;;5022022;28;20054;-69
2023/01/07 09:54:28;;;;;;;4.60;2.60;;;;;;;;;;5026153;28;20029;-68
2023/01/07 09:56:54;;;;;;;3.97;2.58;;;;;;;;;;5027552;28;20057;-68
2023/01/07 09:59:20;;;;;;;6.63;2.80;;;;;;;;;;5028489;28;20037;-69
2023/01/07 10:02:09;;;;;;;4.88;2.40;;;;;;;;;;5026211;28;20498;-69
2023/01/07 10:04:41;;;;;;;3.13;2.40;;;;;;;;;;5027613;28;20042;-69
2023/01/07 10:07:22;;;;;;;3.75;2.83;;;;;;;;;;5029303;28;20033;-69
2023/01/07 10:09:53;;;;;;;3.53;2.30;;;;;;;;;;5030517;28;20037;-69
2023/01/07 10:12:26;;;;;;;2.85;2.20;;;;;;;;;;5025434;28;20033;-69
2023/01/07 10:15:01;;;;;;;3.25;2.33;;;;;;;;;;5022281;28;20045;-69
2023/01/07 10:17:36;;;;;;;2.63;2.20;;;;;;;;;;5029544;28;20419;-69
2023/01/07 10:20:11;;;;;;;3.00;2.35;;;;;;;;;;5028196;28;20033;-69
2023/01/07 10:22:56;;;;;;;3.47;2.50;;;;;;;;;;5028756;28;20045;-69
2023/01/07 10:25:26;;;;;;;2.80;2.50;;;;;;;;;;5030386;28;20046;-69
2023/01/07 10:27:53;;;;;;;3.50;2.47;;;;;;;;;;5026007;28;20037;-69
2023/01/07 10:30:24;;;;;;;2.42;2.22;;;;;;;;;;5025109;28;20402;-69
2023/01/07 10:32:56;;;;;;;3.25;2.17;;;;;;;;;;5034366;28;20483;-69
2023/01/07 10:35:24;;;;;;;4.22;2.28;;;;;;;;;;5033877;28;20041;-69
2023/01/07 10:37:50;;;;;;;2.75;1.92;;;;;;;;;;5026509;28;20069;-69
2023/01/07 10:40:25;;;;;;;2.58;1.63;;;;;;;;;;5021870;28;20041;-69
2023/01/07 10:43:01;;;;;;;4.30;2.28;;;;;;;;;;5029422;28;20041;-69
2023/01/07 10:45:29;;;;;;;2.58;1.92;;;;;;;;;;5030302;28;20495;-69
2023/01/07 10:47:55;;;;;;;2.88;1.98;;;;;;;;;;5028874;28;20037;-69
2023/01/07 10:50:29;;;;;;;2.15;1.90;;;;;;;;;;5029614;28;20044;-69
2023/01/07 10:52:55;;;;;;;5.03;2.20;;;;;;;;;;5026102;28;20341;-69
2023/01/07 10:55:33;;;;;;;2.88;2.05;;;;;;;;;;5030000;28;20096;-69
2023/01/07 10:57:59;;;;;;;2.67;2.20;;;;;;;;;;5024214;28;20056;-69
2023/01/07 11:00:25;;;;;;;2.33;1.92;;;;;;;;;;5025912;28;20037;-69
2023/01/07 11:02:56;;;;;;;3.95;2.13;;;;;;;;;;5025314;28;20048;-68
2023/01/07 11:05:23;;;;;;;4.43;2.17;;;;;;;;;;5029008;28;20515;-69
2023/01/07 11:07:52;;;;;;;4.50;1.92;;;;;;;;;;5027146;28;20037;-69
2023/01/07 11:10:18;;;;;;;2.85;1.80;;;;;;;;;;5029120;28;20487;-69
2023/01/07 11:12:46;;;;;;;2.35;2.00;;;;;;;;;;5023574;28;20123;-69
2023/01/07 11:15:17;;;;;;;4.00;2.13;;;;;;;;;;5031782;28;20045;-69
2023/01/07 11:17:50;;;;;;;3.65;1.90;;;;;;;;;;5028818;28;20064;-69
2023/01/07 11:20:34;;;;;;;2.78;1.98;;;;;;;;;;5026926;28;20041;-69
2023/01/07 11:23:00;;;;;;;2.42;2.20;;;;;;;;;;5022227;28;20048;-69
2023/01/07 11:25:28;;;;;;;3.58;2.30;;;;;;;;;;5019591;28;20405;-69
2023/01/07 11:27:57;;;;;;;3.80;1.60;;;;;;;;;;5022761;28;20132;-69
2023/01/07 11:30:25;;;;;;;3.33;2.00;;;;;;;;;;5033126;28;20047;-69
2023/01/07 11:32:56;;;;;;;3.08;2.30;;;;;;;;;;5029816;28;20372;-69
2023/01/07 11:35:22;;;;;;;3.45;2.15;;;;;;;;;;5027949;28;20038;-70
2023/01/07 11:37:49;;;;;;;2.53;1.85;;;;;;;;;;5028067;28;20103;-70
2023/01/07 11:40:15;;;;;;;3.30;2.00;;;;;;;;;;5024602;28;20045;-69
2023/01/07 11:42:53;;;;;;;2.22;1.98;;;;;;;;;;5026105;28;20049;-69
2023/01/07 11:45:24;;;;;;;2.28;2.08;;;;;;;;;;5030879;28;20041;-70
2023/01/07 11:47:50;;;;;;;;;;;;;;;;;;5031080;28;20037;-69
2023/01/07 11:50:23;;;;;;;4.15;2.17;;;;;;;;;;5028173;28;19923;-69
2023/01/07 11:52:56;;;;;;;2.40;1.88;;;;;;;;;;5024778;28;20067;-69
2023/01/07 11:55:22;;;;;;;4.10;2.03;;;;;;;;;;5019063;28;20065;-69
2023/01/07 11:57:52;;;;;;;2.83;1.88;;;;;;;;;;5032450;28;20045;-69
2023/01/07 12:00:19;;;;;;;2.17;1.80;;;;;;;;;;5032997;28;20048;-69
2023/01/07 12:02:45;;;;;;;3.35;1.75;;;;;;;;;;5027106;28;20041;-69
2023/01/07 12:05:19;;;;;;;3.38;1.80;;;;;;;;;;5022844;28;20037;-69
2023/01/07 12:07:48;;;;;;;3.15;1.95;;;;;;;;;;5030854;28;20033;-70
2023/01/07 12:10:26;;;;;;;4.38;1.98;;;;;;;;;;5025743;28;20038;-69
2023/01/07 12:12:53;;;;;;;3.53;1.70;;;;;;;;;;5030037;28;20048;-70
2023/01/07 12:15:20;;;;;;;2.80;1.65;;;;;;;;;;5018796;28;20058;-70
2023/01/07 12:17:48;;;;;;;2.35;1.63;;;;;;;;;;5023294;28;20048;-69
2023/01/07 12:20:17;;;;;;;4.75;2.13;;;;;;;;;;5027333;28;20033;-69
2023/01/07 12:23:01;;;;;;;1.88;1.65;;;;;;;;;;5028941;28;20048;-69
2023/01/07 12:25:37;;;;;;;3.38;2.00;;;;;;;;;;5030670;28;20046;-69
2023/01/07 12:28:10;;;;;;;1.75;1.63;;;;;;;;;;5018888;28;20049;-69
2023/01/07 12:30:43;;;;;;;3.60;1.77;;;;;;;;;;5024281;28;20116;-70
2023/01/07 12:33:27;;;;;;;1.63;1.50;;;;;;;;;;5025612;28;20113;-69
2023/01/07 12:35:56;;;;;;;2.67;1.40;;;;;;;;;;5028650;28;20033;-71
2023/01/07 12:41:36;;;;;;;3.85;1.50;;;;;;;;;;5021169;28;20049;-69
2023/01/07 12:44:04;;;;;;;3.28;1.70;;;;;;;;;;5031664;28;20160;-69
2023/01/07 12:46:44;;;;;;;2.13;1.45;;;;;;;;;;5014120;28;20404;-70
2023/01/07 12:49:10;;;;;;;1.50;1.30;;;;;;;;;;5023946;28;20483;-70
2023/01/07 12:51:40;;;;;;;2.10;1.25;;;;;;;;;;5031735;28;20037;-69
2023/01/07 12:54:16;;;;;;;1.75;1.40;;;;;;;;;;5032258;28;20042;-69
2023/01/07 12:56:49;;;;;;;2.30;1.42;;;;;;;;;;5031033;28;20049;-69
2023/01/07 12:59:18;;;;;;;2.40;1.40;;;;;;;;;;5031640;28;20077;-69
2023/01/07 13:01:44;;;;;;;1.80;1.25;;;;;;;;;;5028804;28;20041;-69
2023/01/07 13:04:21;;;;;;;1.85;1.38;;;;;;;;;;5025049;28;20430;-69
2023/01/07 13:06:57;;;;;;;2.03;1.30;;;;;;;;;;5031138;28;20048;-69
2023/01/07 13:09:29;;;;;;;3.90;1.38;;;;;;;;;;5032028;28;20033;-70
2023/01/07 13:14:51;;;;;;;2.65;1.60;;;;;;;;;;5032189;28;20099;-69
2023/01/07 13:17:20;;;;;;;3.33;1.70;;;;;;;;;;5030383;28;20060;-69
2023/01/07 13:19:46;;;;;;;2.67;1.50;;;;;;;;;;5028341;28;20495;-69
2023/01/07 13:22:18;;;;;;;3.45;2.25;;;;;;;;;;5030906;28;20045;-69
2023/01/07 13:24:56;;;;;;;3.42;1.90;;;;;;;;;;5031583;28;20045;-69
2023/01/07 13:27:22;;;;;;;4.15;1.83;;;;;;;;;;5031322;28;20434;-69
2023/01/07 13:29:57;;;;;;;3.50;1.92;;;;;;;;;;5030940;28;20044;-69
2023/01/07 13:32:38;;;;;;;3.60;2.08;;;;;;;;;;5030135;28;20041;-70
2023/01/07 13:35:28;;;;;;;2.95;2.03;;;;;;;;;;5031274;28;20041;-70
2023/01/07 13:38:01;;;;;;;1.60;1.50;;;;;;;;;;5011630;28;20161;-70
2023/01/07 13:40:30;;;;;;;3.45;1.88;;;;;;;;;;5043353;28;20052;-70
2023/01/07 13:42:59;;;;;;;2.75;1.80;;;;;;;;;;5050932;28;20045;-70
2023/01/07 13:45:25;;;;;;;3.85;2.00;;;;;;;;;;5033618;28;20046;-70
2023/01/07 13:47:58;;;;;;;3.65;1.90;;;;;;;;;;5030946;28;20411;-70
2023/01/07 13:50:28;;;;;;;2.83;1.90;;;;;;;;;;5031486;28;20037;-70
2023/01/07 13:52:58;;;;;;;3.58;2.20;;;;;;;;;;5026166;28;20570;-70
2023/01/07 13:55:31;;;;;;;3.03;1.77;;;;;;;;;;5020567;28;20124;-69
2023/01/07 13:57:57;;;;;;;1.75;1.50;;;;;;;;;;5030042;28;20314;-70
2023/01/07 14:00:38;;;;;;;3.35;1.80;;;;;;;;;;5031174;28;20041;-70
2023/01/07 14:03:04;;;;;;;2.63;1.60;;;;;;;;;;5030894;28;20045;-70
2023/01/07 14:05:30;;;;;;;3.13;1.60;;;;;;;;;;5031091;28;20483;-70
2023/01/07 14:08:00;;;;;;;2.35;1.80;;;;;;;;;;5072485;22;20033;-65
2023/01/07 14:10:34;;;;;;;2.47;1.48;;;;;;;;;;5051012;28;20036;-65
2023/01/07 14:13:06;;;;;;;3.60;1.80;;;;;;;;;;5052263;28;20041;-65
2023/01/07 14:15:38;;;;;;;2.17;1.98;;;;;;;;;;5071417;28;20037;-66
2023/01/07 14:18:09;;;;;;;2.33;1.77;;;;;;;;;;5071273;28;20040;-65
2023/01/07 14:20:35;;;;;;;;;;;;;;;;;;5071276;28;20040;-65
2023/01/07 14:23:11;;;;;;;2.38;1.77;;;;;;;;;;5063842;28;20363;-65
2023/01/07 14:25:37;;;;;;;2.30;2.05;;;;;;;;;;5051212;28;20032;-64
2023/01/07 14:28:13;;;;;;;2.35;2.00;;;;;;;;;;5067926;28;20055;-65
2023/01/07 14:30:46;;;;;;;2.65;2.15;;;;;;;;;;5074490;28;20398;-65
2023/01/07 14:33:23;;;;;;;2.67;1.80;;;;;;;;;;5071877;28;20036;-65
2023/01/07 14:35:59;;;;;;;2.78;1.90;;;;;;;;;;5066230;28;20044;-66
2023/01/07 14:38:29;;;;;;;2.22;1.90;;;;;;;;;;5072080;28;20102;-65
2023/01/07 14:41:04;;;;;;;3.15;2.05;;;;;;;;;;5070190;28;20098;-65
2023/01/07 14:43:49;;;;;;;2.90;1.90;;;;;;;;;;5055692;28;20083;-65
2023/01/07 14:46:24;;;;;;;3.17;1.90;;;;;;;;;;5073061;28;20041;-65
2023/01/07 14:49:02;;;;;;;2.72;2.10;;;;;;;;;;5072938;28;20094;-65
2023/01/07 14:51:37;;;;;;;3.50;2.13;;;;;;;;;;5081455;28;20044;-65
2023/01/07 14:54:12;;;;;;;3.45;2.25;;;;;;;;;;5054585;28;20394;-65